Time;durP1;ratioP1;P1;durP2;ratioP2;P2;SDS_P1;SDS_P2;PMS_P1;PMS_P2;Temp;Humidity;BMP_temperature;BMP_pressure;BME280_temperature;BME280_humidity;BME280_pressure;Samples;Min_cycle;Max_cycle;Signal;HPM_P1;HPM_P2
2023/04/30 00:01:29;;;;;;;14.80;11.43;;;15.30;99.90;;;;;;4592352;19;20021;-19
2023/04/30 00:03:00;;;;;;;14.93;12.13;;;15.30;99.90;;;;;;4592433;19;19999;-19
2023/04/30 00:04:33;;;;;;;13.47;10.90;;;15.10;99.90;;;;;;4592948;19;20337;-19
2023/04/30 00:06:05;;;;;;;14.93;11.55;;;15.10;99.90;;;;;;4593266;19;20011;-18
2023/04/30 00:07:41;;;;;;;13.27;11.13;;;15.20;99.90;;;;;;4593542;19;20114;-19
2023/04/30 00:09:12;;;;;;;15.53;11.93;;;15.20;99.90;;;;;;4593991;19;20014;-19
2023/04/30 00:10:43;;;;;;;14.23;9.80;;;15.10;99.90;;;;;;4571212;19;20015;-19
2023/04/30 00:12:15;;;;;;;12.70;10.95;;;15.20;99.90;;;;;;4593546;19;20051;-18
2023/04/30 00:13:46;;;;;;;14.90;10.68;;;15.20;99.90;;;;;;4592748;19;20003;-19
2023/04/30 00:15:19;;;;;;;13.83;10.17;;;15.20;99.90;;;;;;4592971;19;20002;-20
2023/04/30 00:17:08;;;;;;;13.57;11.80;;;15.20;99.90;;;;;;4593191;19;20341;-19
2023/04/30 00:18:40;;;;;;;13.43;10.07;;;15.20;99.90;;;;;;4593104;19;20510;-18
2023/04/30 00:20:13;;;;;;;13.83;10.07;;;15.20;99.90;;;;;;4593190;19;20010;-21
2023/04/30 00:21:44;;;;;;;14.73;11.05;;;15.20;99.90;;;;;;4593103;19;20038;-19
2023/04/30 00:23:17;;;;;;;14.27;10.77;;;15.20;99.90;;;;;;4593565;19;20014;-19
2023/04/30 00:24:51;;;;;;;16.47;11.43;;;15.20;99.90;;;;;;4592026;19;20014;-19
2023/04/30 00:26:22;;;;;;;12.85;10.30;;;15.20;99.90;;;;;;4591840;19;20007;-20
2023/04/30 00:27:56;;;;;;;16.07;10.67;;;15.20;99.90;;;;;;4592728;19;20374;-19
2023/04/30 00:29:29;;;;;;;11.63;10.37;;;15.20;99.90;;;;;;4592613;19;20026;-19
2023/04/30 00:31:05;;;;;;;16.17;11.97;;;15.20;99.90;;;;;;4591891;19;20017;-20
2023/04/30 00:32:39;;;;;;;15.23;11.20;;;15.20;99.90;;;;;;4592841;19;20360;-19
2023/04/30 00:34:10;;;;;;;17.07;11.53;;;15.20;99.90;;;;;;4593511;19;20344;-19
2023/04/30 00:35:41;;;;;;;12.48;10.52;;;15.10;99.90;;;;;;4593386;19;20002;-18
2023/04/30 00:37:12;;;;;;;15.45;10.70;;;15.10;99.90;;;;;;4592857;19;20082;-19
2023/04/30 00:38:45;;;;;;;15.53;10.97;;;15.10;99.90;;;;;;4592976;19;20031;-19
2023/04/30 00:40:16;;;;;;;14.93;10.70;;;15.10;99.90;;;;;;4590481;19;20348;-19
2023/04/30 00:41:48;;;;;;;12.63;10.63;;;15.10;99.90;;;;;;4591063;19;20015;-19
2023/04/30 00:43:20;;;;;;;13.40;10.50;;;15.10;99.90;;;;;;4592812;19;20025;-19
2023/04/30 00:44:52;;;;;;;16.60;10.57;;;15.00;99.90;;;;;;4593061;19;20062;-19
2023/04/30 00:46:23;;;;;;;12.20;10.13;;;14.90;99.90;;;;;;4591427;19;20120;-19
2023/04/30 00:47:55;;;;;;;12.30;10.17;;;14.90;99.90;;;;;;4592296;19;20360;-20
2023/04/30 00:49:27;;;;;;;14.50;9.90;;;14.90;99.90;;;;;;4591446;19;20114;-19
2023/04/30 00:59:06;;;;;;;14.50;11.03;;;14.90;99.90;;;;;;4591580;19;19986;-19
2023/04/30 01:00:37;;;;;;;15.60;10.88;;;14.90;99.90;;;;;;4592761;19;20042;-19
2023/04/30 01:02:10;;;;;;;18.37;12.03;;;14.90;99.90;;;;;;4591900;19;20033;-19
2023/04/30 01:03:41;;;;;;;16.25;11.27;;;14.90;99.90;;;;;;4592694;19;20010;-19
2023/04/30 01:05:13;;;;;;;13.93;10.13;;;14.90;99.90;;;;;;4593044;19;20006;-19
2023/04/30 01:06:45;;;;;;;14.70;10.60;;;14.90;99.90;;;;;;4592650;19;20006;-19
2023/04/30 01:08:16;;;;;;;13.20;10.17;;;14.90;99.90;;;;;;4592340;19;20018;-19
2023/04/30 01:09:49;;;;;;;15.10;10.00;;;14.90;99.90;;;;;;4592763;19;20022;-19
2023/04/30 01:11:57;;;;;;;15.52;10.10;;;14.90;99.90;;;;;;4591409;19;20069;-20
2023/04/30 01:13:38;;;;;;;12.03;9.00;;;14.90;99.90;;;;;;4592406;19;20014;-18
2023/04/30 01:15:16;;;;;;;;;;;14.90;99.90;;;;;;4592587;19;19999;-19
2023/04/30 01:16:58;;;;;;;13.27;9.13;;;14.90;99.90;;;;;;4591478;19;20572;-19
2023/04/30 01:18:32;;;;;;;12.03;10.10;;;14.90;99.90;;;;;;4590921;19;20018;-20
2023/04/30 01:20:06;;;;;;;14.53;9.93;;;14.90;99.90;;;;;;4591618;19;20452;-19
2023/04/30 01:21:40;;;;;;;14.23;9.47;;;14.90;99.90;;;;;;4592038;19;20010;-19
2023/04/30 01:24:02;;;;;;;13.53;10.30;;;14.80;99.90;;;;;;4590845;19;20014;-20
2023/04/30 01:25:39;;;;;;;12.47;10.27;;;14.80;99.90;;;;;;4589710;19;20002;-19
2023/04/30 01:27:31;;;;;;;14.23;11.30;;;14.80;99.90;;;;;;4588646;19;20019;-19
2023/04/30 01:29:03;;;;;;;14.50;10.87;;;14.90;99.90;;;;;;4590035;19;20013;-19
2023/04/30 01:30:36;;;;;;;15.57;10.27;;;14.80;99.90;;;;;;4589313;19;20018;-20
2023/04/30 01:32:08;;;;;;;11.77;9.55;;;14.90;99.90;;;;;;4589731;19;20051;-19
2023/04/30 01:33:42;;;;;;;14.00;9.77;;;14.80;99.90;;;;;;4589496;19;20081;-18
2023/04/30 01:35:15;;;;;;;12.67;8.70;;;14.80;99.90;;;;;;4589740;19;20103;-19
2023/04/30 01:37:00;;;;;;;13.50;10.17;;;14.90;99.90;;;;;;4589453;19;20003;-19
2023/04/30 01:38:59;;;;;;;13.27;9.67;;;14.80;99.90;;;;;;4590242;19;20009;-19
2023/04/30 01:40:45;;;;;;;14.97;9.57;;;14.80;99.90;;;;;;4589376;19;20011;-18
2023/04/30 01:42:21;;;;;;;12.37;9.37;;;14.80;99.90;;;;;;4588749;19;20191;-20
2023/04/30 01:44:26;;;;;;;14.83;10.73;;;14.80;99.90;;;;;;4589422;19;20439;-19
2023/04/30 01:46:34;;;;;;;14.57;10.20;;;14.80;99.90;;;;;;4589481;19;20102;-19
2023/04/30 01:48:31;;;;;;;12.10;9.07;;;14.70;99.90;;;;;;4589444;19;20011;-19
2023/04/30 01:50:38;;;;;;;13.03;9.13;;;14.70;99.90;;;;;;4589548;19;20017;-20
2023/04/30 01:52:17;;;;;;;12.47;9.47;;;14.60;99.90;;;;;;4589242;19;20011;-19
2023/04/30 01:53:50;;;;;;;14.23;10.20;;;14.60;99.90;;;;;;4589481;19;20045;-19
2023/04/30 01:55:42;;;;;;;16.17;11.27;;;14.60;99.90;;;;;;4589072;19;20007;-19
2023/04/30 01:57:47;;;;;;;13.93;10.20;;;14.60;99.90;;;;;;4589503;19;20003;-18
2023/04/30 01:59:18;;;;;;;15.13;9.67;;;14.60;99.90;;;;;;4589026;19;20086;-19
2023/04/30 02:00:50;;;;;;;13.32;10.35;;;14.60;99.90;;;;;;4588984;19;20569;-19
2023/04/30 02:02:23;;;;;;;11.80;9.90;;;14.60;99.90;;;;;;4588426;19;20014;-19
2023/04/30 02:03:55;;;;;;;14.93;10.80;;;14.50;99.90;;;;;;4588839;19;20487;-19
2023/04/30 02:05:26;;;;;;;14.70;9.85;;;14.60;99.90;;;;;;4588977;19;20031;-18
2023/04/30 02:06:57;;;;;;;12.90;10.05;;;14.50;99.90;;;;;;4588981;19;20006;-18
2023/04/30 02:08:30;;;;;;;13.77;9.43;;;14.50;99.90;;;;;;4588910;19;20350;-19
2023/04/30 02:10:04;;;;;;;13.97;10.97;;;14.50;99.90;;;;;;4588482;19;20033;-19
2023/04/30 02:11:37;;;;;;;15.43;11.27;;;14.60;99.90;;;;;;4588405;19;20002;-19
2023/04/30 02:13:08;;;;;;;14.35;11.13;;;14.60;99.90;;;;;;4588787;19;20007;-20
2023/04/30 02:14:39;;;;;;;13.40;9.63;;;14.60;99.90;;;;;;4589002;19;20330;-19
2023/04/30 02:16:11;;;;;;;13.50;10.53;;;14.60;99.90;;;;;;4589149;19;20011;-19
2023/04/30 02:17:44;;;;;;;13.17;9.97;;;14.60;99.90;;;;;;4588862;19;20348;-18
2023/04/30 02:19:16;;;;;;;11.95;9.73;;;14.60;99.90;;;;;;4588729;19;20082;-19
2023/04/30 02:20:47;;;;;;;16.23;10.23;;;14.60;99.90;;;;;;4589114;19;20427;-19
2023/04/30 02:22:18;;;;;;;13.35;10.23;;;14.60;99.90;;;;;;4589064;19;20006;-19
2023/04/30 02:23:50;;;;;;;13.07;9.33;;;14.60;99.90;;;;;;4590235;19;20014;-19
2023/04/30 02:25:23;;;;;;;17.67;10.07;;;14.60;99.90;;;;;;4591086;19;20010;-19
2023/04/30 02:26:56;;;;;;;14.63;10.07;;;14.60;99.90;;;;;;4589326;19;20047;-19
2023/04/30 02:28:29;;;;;;;11.52;9.18;;;14.60;99.90;;;;;;4590247;19;20015;-19
2023/04/30 02:30:05;;;;;;;15.03;10.17;;;14.60;99.90;;;;;;4590572;19;20006;-19
2023/04/30 02:31:36;;;;;;;12.13;9.47;;;14.60;99.90;;;;;;4589453;19;20021;-18
2023/04/30 02:33:11;;;;;;;11.57;8.80;;;14.50;99.90;;;;;;4590781;19;20028;-18
2023/04/30 02:34:43;;;;;;;14.43;10.53;;;14.50;99.90;;;;;;4591464;19;20330;-19
2023/04/30 02:36:15;;;;;;;14.60;11.00;;;14.50;99.90;;;;;;4589942;19;20017;-19
2023/04/30 02:37:46;;;;;;;14.50;9.75;;;14.50;99.90;;;;;;4590653;19;20002;-19
2023/04/30 02:39:18;;;;;;;14.13;10.60;;;14.50;99.90;;;;;;4591036;19;20006;-19
2023/04/30 02:40:50;;;;;;;14.47;10.30;;;14.50;99.90;;;;;;4591323;19;20017;-19
2023/04/30 02:42:23;;;;;;;14.03;10.30;;;14.50;99.90;;;;;;4588194;19;20025;-19
2023/04/30 02:43:54;;;;;;;17.65;11.77;;;14.50;99.90;;;;;;4590366;19;20018;-19
2023/04/30 02:45:27;;;;;;;14.57;11.00;;;14.50;99.90;;;;;;4590869;19;20060;-18
2023/04/30 02:46:59;;;;;;;16.40;10.55;;;14.50;99.90;;;;;;4590629;19;20014;-19
2023/04/30 02:48:30;;;;;;;14.73;10.50;;;14.50;99.90;;;;;;4590300;19;20026;-19
2023/04/30 02:50:05;;;;;;;13.10;10.30;;;14.40;99.90;;;;;;4589359;19;20018;-20
2023/04/30 02:51:37;;;;;;;13.27;9.80;;;14.40;99.90;;;;;;4589517;19;20022;-19
2023/04/30 02:53:09;;;;;;;14.47;9.90;;;14.40;99.90;;;;;;4590156;19;20350;-19
2023/04/30 02:54:41;;;;;;;12.83;10.10;;;14.40;99.90;;;;;;4590477;19;20367;-19
2023/04/30 02:56:14;;;;;;;13.47;9.70;;;14.40;99.90;;;;;;4589363;19;20487;-19
2023/04/30 02:57:46;;;;;;;13.32;10.13;;;14.40;99.90;;;;;;4589345;19;20002;-19
2023/04/30 02:59:18;;;;;;;14.27;10.57;;;14.40;99.90;;;;;;4589699;19;20078;-20
2023/04/30 03:00:51;;;;;;;14.33;10.63;;;14.40;99.90;;;;;;4590211;19;20362;-19
2023/04/30 03:02:23;;;;;;;14.40;11.60;;;14.30;99.90;;;;;;4588745;19;20078;-19
2023/04/30 03:03:55;;;;;;;13.38;10.57;;;14.40;99.90;;;;;;4590222;19;20006;-19
2023/04/30 03:05:26;;;;;;;13.75;9.38;;;14.30;99.90;;;;;;4588905;19;20511;-19
2023/04/30 03:07:02;;;;;;;13.63;10.60;;;14.30;99.90;;;;;;4589686;19;20006;-19
2023/04/30 03:08:35;;;;;;;14.43;9.60;;;14.30;99.90;;;;;;4590413;19;20014;-20
2023/04/30 03:10:07;;;;;;;13.30;8.77;;;14.30;99.90;;;;;;4589361;19;20017;-19
2023/04/30 03:11:38;;;;;;;;;;;14.30;99.90;;;;;;4590052;19;20017;-18
2023/04/30 03:13:10;;;;;;;13.73;9.98;;;14.40;99.90;;;;;;4588948;19;20353;-19
2023/04/30 03:14:42;;;;;;;;;;;14.40;99.90;;;;;;4590730;19;20006;-20
2023/04/30 03:16:13;;;;;;;12.27;9.70;;;14.40;99.90;;;;;;4591112;19;19911;-19
2023/04/30 03:17:44;;;;;;;13.25;10.57;;;14.40;99.90;;;;;;4594491;19;20011;-19
2023/04/30 03:19:20;;;;;;;13.40;9.67;;;14.30;99.90;;;;;;4594861;19;20021;-19
2023/04/30 03:20:52;;;;;;;11.00;9.37;;;14.30;99.90;;;;;;4594099;19;20341;-19
2023/04/30 03:22:25;;;;;;;11.27;8.73;;;14.30;99.90;;;;;;4594165;19;20070;-19
2023/04/30 03:23:56;;;;;;;17.60;9.77;;;14.30;99.90;;;;;;4593386;19;20015;-19
2023/04/30 03:25:28;;;;;;;14.30;10.00;;;14.40;99.90;;;;;;4594056;19;20031;-19
2023/04/30 03:27:00;;;;;;;12.27;9.30;;;14.40;99.90;;;;;;4593916;19;20103;-20
2023/04/30 03:28:34;;;;;;;12.03;8.53;;;14.30;99.90;;;;;;4594394;19;20483;-21
2023/04/30 03:30:07;;;;;;;15.57;10.10;;;14.30;99.90;;;;;;4594267;19;20044;-19
2023/04/30 03:31:38;;;;;;;;;;;14.40;99.90;;;;;;4594411;19;20019;-19
2023/04/30 03:33:11;;;;;;;15.73;10.73;;;14.40;99.90;;;;;;4594460;19;19974;-20
2023/04/30 03:34:42;;;;;;;12.70;9.23;;;14.40;99.90;;;;;;4594461;19;20010;-18
2023/04/30 03:36:14;;;;;;;15.38;9.73;;;14.40;99.90;;;;;;4593985;19;20011;-19
2023/04/30 03:37:47;;;;;;;11.93;9.37;;;14.40;99.90;;;;;;4594722;19;20365;-19
2023/04/30 03:39:18;;;;;;;14.73;10.20;;;14.40;99.90;;;;;;4593343;19;20034;-20
2023/04/30 03:40:50;;;;;;;11.20;8.70;;;14.40;99.90;;;;;;4592927;19;20043;-19
2023/04/30 03:42:24;;;;;;;15.40;8.57;;;14.40;99.90;;;;;;4592478;19;20073;-19
2023/04/30 03:43:56;;;;;;;12.33;8.73;;;14.40;99.90;;;;;;4593096;19;20010;-19
2023/04/30 03:45:27;;;;;;;10.93;8.23;;;14.40;99.90;;;;;;4593947;19;20003;-19
2023/04/30 03:46:59;;;;;;;11.13;8.63;;;14.40;99.90;;;;;;4592910;19;20014;-19
2023/04/30 03:48:30;;;;;;;;;;;14.40;99.90;;;;;;4594931;19;20014;-20
2023/04/30 03:50:02;;;;;;;13.10;9.23;;;14.40;99.90;;;;;;4594293;19;19926;-19
2023/04/30 03:51:40;;;;;;;12.17;10.03;;;14.40;99.90;;;;;;4594307;19;20023;-19
2023/04/30 03:53:11;;;;;;;13.43;10.20;;;14.30;99.90;;;;;;4593867;19;20468;-19
2023/04/30 03:54:44;;;;;;;15.27;9.57;;;14.30;99.90;;;;;;4592988;19;20006;-18
2023/04/30 03:56:17;;;;;;;12.57;9.50;;;14.30;99.90;;;;;;4593345;19;20018;-19
2023/04/30 03:57:48;;;;;;;12.48;9.07;;;14.30;99.90;;;;;;4594554;19;20002;-19
2023/04/30 03:59:21;;;;;;;11.93;9.27;;;14.30;99.90;;;;;;4593732;19;20528;-19
2023/04/30 04:00:52;;;;;;;13.47;9.63;;;14.30;99.90;;;;;;4593047;19;20010;-18
2023/04/30 04:02:26;;;;;;;16.13;10.00;;;14.30;99.90;;;;;;4592070;19;20015;-19
2023/04/30 04:03:57;;;;;;;12.82;8.70;;;14.30;99.90;;;;;;4592878;19;20014;-20
2023/04/30 04:05:29;;;;;;;17.20;9.73;;;14.30;99.90;;;;;;4593412;19;20021;-19
2023/04/30 04:07:02;;;;;;;13.00;9.93;;;14.30;99.90;;;;;;4593775;19;20360;-19
2023/04/30 04:08:36;;;;;;;12.40;8.87;;;14.30;99.90;;;;;;4594061;19;20006;-19
2023/04/30 04:10:08;;;;;;;12.23;9.30;;;14.20;99.90;;;;;;4593493;19;20019;-19
2023/04/30 04:11:41;;;;;;;14.23;10.43;;;14.20;99.90;;;;;;4593573;19;20015;-20
2023/04/30 04:13:12;;;;;;;14.55;9.10;;;14.20;99.90;;;;;;4594108;19;20021;-18
2023/04/30 04:14:45;;;;;;;11.63;9.47;;;14.20;99.90;;;;;;4592653;19;20014;-19
2023/04/30 04:16:17;;;;;;;10.23;7.80;;;14.10;99.90;;;;;;4592326;19;20366;-19
2023/04/30 04:17:48;;;;;;;11.57;7.80;;;14.10;99.90;;;;;;4592101;19;20010;-20
2023/04/30 04:19:21;;;;;;;11.37;8.17;;;14.10;99.90;;;;;;4592858;19;20018;-19
2023/04/30 04:20:52;;;;;;;12.00;7.90;;;14.10;99.90;;;;;;4592390;19;20017;-19
2023/04/30 04:22:23;;;;;;;;;;;14.10;99.90;;;;;;4592934;19;20340;-19
2023/04/30 04:23:55;;;;;;;11.70;7.93;;;14.10;99.90;;;;;;4593527;19;19915;-19
2023/04/30 04:25:27;;;;;;;14.47;8.33;;;14.20;99.90;;;;;;4592538;19;20536;-20
2023/04/30 04:27:01;;;;;;;9.60;7.97;;;14.10;99.90;;;;;;4591607;19;20022;-18
2023/04/30 04:28:35;;;;;;;11.53;8.50;;;14.10;99.90;;;;;;4592877;19;20455;-19
2023/04/30 04:30:07;;;;;;;11.30;8.80;;;14.10;99.90;;;;;;4593085;19;20385;-19
2023/04/30 04:31:41;;;;;;;11.93;8.47;;;14.10;99.90;;;;;;4593218;19;20015;-19
2023/04/30 04:33:13;;;;;;;11.97;7.83;;;14.00;99.90;;;;;;4593356;19;20360;-19
2023/04/30 04:34:44;;;;;;;9.55;7.55;;;14.00;99.90;;;;;;4593207;19;20014;-19
2023/04/30 04:36:16;;;;;;;12.05;8.40;;;14.00;99.90;;;;;;4592192;19;20499;-19
2023/04/30 04:37:48;;;;;;;;;;;14.00;99.90;;;;;;4593971;19;20487;-19
2023/04/30 04:39:20;;;;;;;10.20;7.27;;;14.00;99.90;;;;;;4591927;19;19915;-19
2023/04/30 04:40:53;;;;;;;12.67;8.37;;;14.10;99.90;;;;;;4591813;19;20030;-19
2023/04/30 04:42:26;;;;;;;12.77;8.60;;;14.00;99.90;;;;;;4591571;19;20475;-19
2023/04/30 04:43:58;;;;;;;12.25;8.27;;;14.00;99.90;;;;;;4593535;19;19998;-19
2023/04/30 04:45:30;;;;;;;11.90;8.50;;;14.00;99.90;;;;;;4591574;19;20015;-19
2023/04/30 04:47:03;;;;;;;12.33;8.70;;;14.00;99.90;;;;;;4592744;19;20502;-19
2023/04/30 04:48:35;;;;;;;11.30;8.10;;;14.00;99.90;;;;;;4593221;19;20066;-19
2023/04/30 04:50:07;;;;;;;11.77;7.82;;;14.00;99.90;;;;;;4593485;19;20006;-19
2023/04/30 04:51:39;;;;;;;11.27;6.83;;;13.90;99.90;;;;;;4592509;19;20018;-19
2023/04/30 04:53:10;;;;;;;9.40;7.20;;;14.00;99.90;;;;;;4591765;19;20006;-19
2023/04/30 04:54:44;;;;;;;11.57;6.87;;;14.00;99.90;;;;;;4592071;19;20083;-19
2023/04/30 04:56:17;;;;;;;10.83;7.97;;;14.00;99.90;;;;;;4591976;19;20018;-19
2023/04/30 04:57:48;;;;;;;11.83;7.57;;;14.00;99.90;;;;;;4591170;19;20042;-19
2023/04/30 04:59:21;;;;;;;11.03;7.83;;;14.00;99.90;;;;;;4592081;19;20420;-19
2023/04/30 05:00:53;;;;;;;9.80;7.25;;;14.00;99.90;;;;;;4593215;19;20463;-20
2023/04/30 05:02:25;;;;;;;12.75;8.52;;;14.00;99.90;;;;;;4590961;19;20005;-19
2023/04/30 05:03:56;;;;;;;12.48;6.95;;;14.10;99.90;;;;;;4592239;19;20362;-19
2023/04/30 05:05:27;;;;;;;;;;;14.10;99.90;;;;;;4592526;19;20011;-20
2023/04/30 05:06:59;;;;;;;10.23;7.43;;;14.10;99.90;;;;;;4592283;19;19989;-19
2023/04/30 05:08:30;;;;;;;14.03;7.10;;;14.10;99.90;;;;;;4592355;19;20002;-19
2023/04/30 05:10:03;;;;;;;10.87;7.17;;;14.10;99.90;;;;;;4592452;19;20010;-19
2023/04/30 05:11:36;;;;;;;14.30;6.60;;;14.10;99.90;;;;;;4592768;19;20018;-20
2023/04/30 05:13:08;;;;;;;9.67;6.07;;;14.20;99.90;;;;;;4592486;19;20010;-19
2023/04/30 05:14:41;;;;;;;10.50;6.50;;;14.20;99.90;;;;;;4592201;19;20011;-19
2023/04/30 05:16:12;;;;;;;11.02;6.25;;;14.30;99.90;;;;;;4591225;19;20007;-19
2023/04/30 05:17:44;;;;;;;8.63;5.30;;;14.20;99.90;;;;;;4591871;19;20014;-19
2023/04/30 05:19:16;;;;;;;13.83;5.77;;;14.20;99.90;;;;;;4592597;19;20011;-19
2023/04/30 05:20:48;;;;;;;8.47;6.00;;;14.20;99.90;;;;;;4590888;19;20366;-19
2023/04/30 05:22:20;;;;;;;9.43;5.40;;;14.30;99.90;;;;;;4591239;19;20018;-19
2023/04/30 05:23:53;;;;;;;10.97;5.83;;;14.30;99.90;;;;;;4592178;19;20015;-19
2023/04/30 05:25:24;;;;;;;8.77;5.75;;;14.30;99.90;;;;;;4592414;19;19995;-19
2023/04/30 05:26:57;;;;;;;9.43;4.40;;;14.20;99.90;;;;;;4591281;19;20459;-20
2023/04/30 05:28:29;;;;;;;11.73;4.65;;;14.30;99.90;;;;;;4590875;19;20014;-20
2023/04/30 05:30:01;;;;;;;;;;;14.20;99.90;;;;;;4592398;19;20011;-20
2023/04/30 05:31:32;;;;;;;11.10;4.53;;;14.10;99.90;;;;;;4592441;19;20321;-20
2023/04/30 05:33:04;;;;;;;9.67;4.63;;;14.20;99.90;;;;;;4591705;19;20081;-20
2023/04/30 05:34:36;;;;;;;10.50;4.90;;;14.20;99.90;;;;;;4591905;19;20015;-19
2023/04/30 05:36:10;;;;;;;6.63;3.87;;;14.10;99.90;;;;;;4591636;19;20022;-20
2023/04/30 05:37:41;;;;;;;11.63;4.53;;;14.10;99.90;;;;;;4590646;19;20459;-19
2023/04/30 05:39:13;;;;;;;7.55;4.55;;;14.10;99.90;;;;;;4589847;19;20023;-20
2023/04/30 05:40:45;;;;;;;9.33;4.57;;;14.10;99.90;;;;;;4592080;19;20007;-20
2023/04/30 05:42:17;;;;;;;7.78;4.05;;;14.00;99.90;;;;;;4591225;19;20037;-19
2023/04/30 05:43:48;;;;;;;9.23;4.57;;;14.10;99.90;;;;;;4591670;19;20014;-20
2023/04/30 05:45:21;;;;;;;7.73;4.60;;;14.10;99.90;;;;;;4591610;19;20006;-21
2023/04/30 05:46:52;;;;;;;10.60;5.13;;;14.10;99.90;;;;;;4591895;19;20005;-20
2023/04/30 06:06:20;;;;;;;8.60;4.43;;;14.30;99.90;;;;;;4590134;19;19994;-20
2023/04/30 06:07:52;;;;;;;8.13;4.55;;;14.30;99.90;;;;;;4591078;19;20015;-20
2023/04/30 06:09:24;;;;;;;8.53;4.53;;;14.30;99.90;;;;;;4591450;19;20006;-19
2023/04/30 06:10:55;;;;;;;8.38;4.43;;;14.20;99.90;;;;;;4589961;19;20010;-20
2023/04/30 06:12:26;;;;;;;9.30;4.32;;;14.30;99.90;;;;;;4590808;19;20015;-20
2023/04/30 06:14:02;;;;;;;9.43;4.93;;;14.20;99.90;;;;;;4591284;19;20022;-19
2023/04/30 06:15:35;;;;;;;8.02;3.90;;;14.30;99.90;;;;;;4590304;19;20455;-19
2023/04/30 06:17:06;;;;;;;8.55;4.07;;;14.30;99.90;;;;;;4590443;19;20021;-19
2023/04/30 06:18:38;;;;;;;10.83;4.40;;;14.40;99.90;;;;;;4591169;19;20021;-19
2023/04/30 06:20:11;;;;;;;9.03;4.33;;;14.30;99.90;;;;;;4590990;19;20052;-20
2023/04/30 06:21:42;;;;;;;;;;;14.40;99.90;;;;;;4592220;19;20011;-20
2023/04/30 06:23:13;;;;;;;11.30;3.92;;;14.30;99.90;;;;;;4589701;19;19914;-20
2023/04/30 06:24:46;;;;;;;10.60;4.33;;;14.30;99.90;;;;;;4589991;19;20103;-19
2023/04/30 06:26:20;;;;;;;9.40;3.85;;;14.30;99.90;;;;;;4589133;19;20014;-20
2023/04/30 06:27:52;;;;;;;7.80;4.17;;;14.20;99.90;;;;;;4590478;19;20010;-19
2023/04/30 06:29:25;;;;;;;7.80;3.83;;;14.20;99.90;;;;;;4589674;19;20010;-20
2023/04/30 06:30:56;;;;;;;7.82;3.47;;;14.20;99.90;;;;;;4590633;19;20365;-20
2023/04/30 06:32:31;;;;;;;5.30;3.37;;;14.20;99.90;;;;;;4591556;19;20021;-19
2023/04/30 06:34:02;;;;;;;7.97;3.92;;;14.30;99.90;;;;;;4591230;19;20014;-19
2023/04/30 06:35:34;;;;;;;8.10;3.77;;;14.30;99.90;;;;;;4589466;19;20081;-20
2023/04/30 06:37:05;;;;;;;8.13;3.33;;;14.30;99.90;;;;;;4589439;19;20015;-20
2023/04/30 06:38:36;;;;;;;8.15;4.30;;;14.30;99.90;;;;;;4589713;19;20479;-20
2023/04/30 06:40:08;;;;;;;7.18;4.00;;;14.30;99.90;;;;;;4590257;19;20074;-20
2023/04/30 06:41:40;;;;;;;8.13;4.00;;;14.40;99.90;;;;;;4590387;19;20471;-20
2023/04/30 06:43:15;;;;;;;8.60;3.10;;;14.20;99.90;;;;;;4589371;19;20031;-20
2023/04/30 06:44:46;;;;;;;6.57;3.23;;;14.30;99.90;;;;;;4591163;19;20491;-20
2023/04/30 06:46:18;;;;;;;10.70;3.50;;;14.30;99.90;;;;;;4589374;19;20031;-20
2023/04/30 06:47:51;;;;;;;11.10;2.90;;;14.20;99.90;;;;;;4589359;19;20044;-20
2023/04/30 06:49:23;;;;;;;6.53;2.63;;;14.20;99.90;;;;;;4590262;19;20014;-19
2023/04/30 06:50:54;;;;;;;8.75;3.28;;;14.30;99.90;;;;;;4588783;19;20003;-20
2023/04/30 06:52:25;;;;;;;8.02;3.70;;;14.40;99.90;;;;;;4588527;19;20022;-20
2023/04/30 06:53:56;;;;;;;8.60;3.22;;;14.40;99.90;;;;;;4589854;19;20018;-20
2023/04/30 06:55:27;;;;;;;7.40;3.28;;;14.40;99.90;;;;;;4590456;19;20428;-20
2023/04/30 06:57:00;;;;;;;8.07;3.20;;;14.50;99.90;;;;;;4590644;19;20074;-19
2023/04/30 06:58:46;;;;;;;7.43;3.30;;;14.50;99.90;;;;;;4589700;19;20006;-19
2023/04/30 07:00:17;;;;;;;7.63;3.83;;;14.60;99.90;;;;;;4589019;19;20006;-20
2023/04/30 07:01:49;;;;;;;10.65;3.60;;;14.60;99.90;;;;;;4590340;19;20002;-20
2023/04/30 07:03:20;;;;;;;5.72;3.70;;;14.60;99.90;;;;;;4590450;19;19999;-20
2023/04/30 07:04:53;;;;;;;8.90;3.45;;;14.50;99.90;;;;;;4590013;19;20471;-20
2023/04/30 07:06:24;;;;;;;6.87;3.70;;;14.40;99.90;;;;;;4590215;19;20021;-20
2023/04/30 07:07:56;;;;;;;6.80;3.15;;;14.50;99.90;;;;;;4590684;19;20010;-20
2023/04/30 07:09:30;;;;;;;;;;;14.50;99.90;;;;;;4591224;19;19999;-19
2023/04/30 07:11:03;;;;;;;7.20;3.60;;;14.50;99.90;;;;;;4589841;19;19926;-19
2023/04/30 07:12:34;;;;;;;8.35;3.35;;;14.40;99.90;;;;;;4590248;19;20007;-19
2023/04/30 07:14:06;;;;;;;6.40;3.20;;;14.40;99.90;;;;;;4590756;19;20015;-20
2023/04/30 07:15:37;;;;;;;6.20;3.35;;;14.40;99.70;;;;;;4590358;19;20017;-20
2023/04/30 07:17:09;;;;;;;7.03;3.35;;;14.30;99.30;;;;;;4588749;19;20081;-20
2023/04/30 07:18:40;;;;;;;10.07;3.78;;;14.40;99.00;;;;;;4567126;19;20333;-20
2023/04/30 07:20:13;;;;;;;4.80;2.60;;;14.30;99.30;;;;;;4589001;19;20030;-20
2023/04/30 07:21:44;;;;;;;6.87;3.10;;;14.30;98.90;;;;;;4588310;19;20010;-19
2023/04/30 07:23:15;;;;;;;6.07;2.50;;;14.30;99.30;;;;;;4588302;19;20011;-19
2023/04/30 07:24:48;;;;;;;6.70;2.60;;;14.20;98.90;;;;;;4589761;19;20369;-20
2023/04/30 07:26:19;;;;;;;6.10;2.30;;;14.30;98.40;;;;;;4589942;19;20018;-19
2023/04/30 07:27:51;;;;;;;8.43;2.15;;;14.30;98.90;;;;;;4589373;19;20017;-20
2023/04/30 07:29:24;;;;;;;5.37;2.23;;;14.40;99.00;;;;;;4588355;19;20019;-20
2023/04/30 07:30:55;;;;;;;7.75;3.15;;;14.50;99.40;;;;;;4589470;19;20020;-19
2023/04/30 07:32:27;;;;;;;8.02;3.10;;;14.50;99.10;;;;;;4588320;19;20014;-19
2023/04/30 07:33:59;;;;;;;8.27;3.17;;;14.40;99.00;;;;;;4589124;19;20021;-20
2023/04/30 07:35:31;;;;;;;5.80;2.97;;;14.40;99.30;;;;;;4587970;19;20013;-20
2023/04/30 07:37:02;;;;;;;6.72;2.17;;;14.30;98.80;;;;;;4590292;19;20073;-20
2023/04/30 07:38:33;;;;;;;6.43;2.42;;;14.40;98.70;;;;;;4588349;19;20033;-19
2023/04/30 07:40:08;;;;;;;7.63;2.70;;;14.40;98.80;;;;;;4589625;19;20018;-20
2023/04/30 07:41:39;;;;;;;7.87;3.20;;;14.40;98.20;;;;;;4590911;19;20018;-20
2023/04/30 07:43:10;;;;;;;6.32;2.40;;;14.40;98.30;;;;;;4589163;19;20022;-19
2023/04/30 07:44:41;;;;;;;4.13;1.73;;;14.40;98.30;;;;;;4588253;19;20034;-20
2023/04/30 07:46:14;;;;;;;6.70;2.23;;;14.50;98.30;;;;;;4587517;19;20023;-19
2023/04/30 07:47:47;;;;;;;6.57;2.30;;;14.60;98.70;;;;;;4586910;19;20022;-20
2023/04/30 07:49:18;;;;;;;4.50;2.00;;;14.60;98.40;;;;;;4589567;19;20007;-20
2023/04/30 07:50:50;;;;;;;6.82;2.35;;;14.60;97.90;;;;;;4587533;19;20468;-20
2023/04/30 07:52:23;;;;;;;6.83;2.93;;;14.50;98.20;;;;;;4587312;19;20014;-20
2023/04/30 07:53:54;;;;;;;11.20;3.43;;;14.50;98.60;;;;;;4590036;19;20067;-20
2023/04/30 07:55:26;;;;;;;17.07;7.63;;;14.50;98.50;;;;;;4589946;19;20011;-21
2023/04/30 07:56:58;;;;;;;9.98;3.63;;;14.60;98.00;;;;;;4589033;19;20336;-20
2023/04/30 07:58:29;;;;;;;5.60;2.42;;;14.60;97.80;;;;;;4588844;19;20010;-20
2023/04/30 08:00:00;;;;;;;5.15;2.50;;;14.70;98.30;;;;;;4588399;19;20011;-20
2023/04/30 08:01:32;;;;;;;4.13;1.80;;;14.40;98.00;;;;;;4588149;19;20031;-19
2023/04/30 08:03:05;;;;;;;4.13;2.47;;;12.90;98.90;;;;;;4589401;19;20025;-20
2023/04/30 08:04:36;;;;;;;5.22;2.60;;;12.20;99.90;;;;;;4590616;19;20508;-19
2023/04/30 08:06:09;;;;;;;4.90;3.00;;;11.90;99.90;;;;;;4591036;19;20022;-20
2023/04/30 08:07:40;;;;;;;6.68;2.67;;;11.70;99.90;;;;;;4591746;19;20457;-20
2023/04/30 08:09:11;;;;;;;3.97;2.33;;;11.70;99.90;;;;;;4594186;19;20011;-19
2023/04/30 08:10:44;;;;;;;6.87;2.40;;;11.60;99.90;;;;;;4593852;19;20018;-19
2023/04/30 08:12:16;;;;;;;4.55;2.63;;;11.60;99.90;;;;;;4594053;19;20487;-20
2023/04/30 08:13:48;;;;;;;5.73;2.80;;;11.60;99.90;;;;;;4592070;19;20032;-19
2023/04/30 08:15:20;;;;;;;6.53;3.13;;;11.60;99.90;;;;;;4591960;19;20836;-20
2023/04/30 08:16:51;;;;;;;7.53;3.00;;;11.70;99.90;;;;;;4592614;19;20452;-19
2023/04/30 08:18:22;;;;;;;7.78;2.90;;;12.00;99.90;;;;;;4591145;19;20015;-20
2023/04/30 08:20:13;;;;;;;5.23;2.30;;;12.40;99.90;;;;;;4590324;19;20006;-19
2023/04/30 08:21:44;;;;;;;9.20;2.70;;;12.80;99.90;;;;;;4591675;19;21094;-19
2023/04/30 08:23:16;;;;;;;6.35;2.80;;;13.10;99.90;;;;;;4590200;19;20042;-19
2023/04/30 08:24:47;;;;;;;;;;;13.30;99.90;;;;;;4592386;19;20014;-19
2023/04/30 08:26:18;;;;;;;12.33;4.60;;;13.50;99.90;;;;;;4593804;19;19952;-19
2023/04/30 08:27:50;;;;;;;9.02;3.38;;;13.60;99.90;;;;;;4593836;19;20014;-19
2023/04/30 08:29:21;;;;;;;7.60;2.72;;;13.80;99.40;;;;;;4593111;19;20007;-20